Durham, Arkansas
Current Conditions -  °F | °C
As of 8:53 PM on Tuesday 25 Nov 2014 (Local Time) from KFYV Reporting Station
Clear Clear  
Wind Chill: -1°   Ceiling: Unl
Heat Index: -1°   Visibility: 10mi
Dew Point: -3°   Wind: 0mph
Humidity: 82%   Direction: NA
Pressure: 30.14"   Gusts: NA
Location:  35.9902°N, 94.083°W
Report Text: KFYV 260253Z 00000KT 10SM CLR M01/M03 A3014 RMK AO2 SLP216 T10061033 58003
Loading
Personal Weather Stations






























Interactive Weather Map New forecast layout! Learn more

10-Day Weather Forecast

Advertisements
Track Severe Weather on mobile